createdAt,value
2018-10-01T00:00:46.031Z,4.57
2018-10-01T00:03:16.887Z,5.33
2018-10-01T00:05:47.187Z,5.27
2018-10-01T00:08:17.765Z,5.10
2018-10-01T00:10:48.380Z,5.73
2018-10-01T00:13:19.778Z,5.00
2018-10-01T00:15:51.084Z,5.37
2018-10-01T00:18:21.892Z,4.17
2018-10-01T00:20:57.350Z,4.43
2018-10-01T00:23:27.641Z,4.20
2018-10-01T00:25:58.263Z,6.00
2018-10-01T00:28:28.440Z,6.03
2018-10-01T00:30:59.097Z,5.20
2018-10-01T00:33:28.584Z,4.67
2018-10-01T00:35:58.555Z,5.63
2018-10-01T00:38:28.411Z,5.63
2018-10-01T00:40:58.574Z,4.40
2018-10-01T00:43:28.270Z,4.90
2018-10-01T00:45:57.824Z,4.73
2018-10-01T00:48:28.113Z,5.07
2018-10-01T00:50:59.535Z,3.90
2018-10-01T00:53:30.443Z,3.80
2018-10-01T00:56:00.460Z,3.87
2018-10-01T00:58:31.013Z,4.67
2018-10-01T01:01:01.184Z,4.13
2018-10-01T01:03:31.281Z,4.97
2018-10-01T01:06:01.556Z,4.47
2018-10-01T01:08:32.062Z,5.57
2018-10-01T01:11:02.142Z,4.70
2018-10-01T01:13:32.219Z,4.90
2018-10-01T01:16:02.233Z,4.03
2018-10-01T01:18:32.119Z,4.10
2018-10-01T01:21:02.640Z,4.07
2018-10-01T01:23:32.970Z,4.23
2018-10-01T01:26:02.846Z,4.00
2018-10-01T01:28:32.442Z,3.93
2018-10-01T01:31:02.457Z,4.10
2018-10-01T01:33:32.795Z,4.00
2018-10-01T01:36:02.480Z,3.90
2018-10-01T01:38:35.304Z,3.50
2018-10-01T01:41:07.040Z,3.57
2018-10-01T01:43:40.219Z,3.60
2018-10-01T01:46:11.313Z,3.30
2018-10-01T01:48:44.075Z,3.23
2018-10-01T01:51:16.978Z,3.97
2018-10-01T01:53:49.506Z,3.47
2018-10-01T01:56:19.077Z,2.80
2018-10-01T01:58:52.287Z,2.80
2018-10-01T02:01:25.186Z,3.10
2018-10-01T02:03:54.688Z,3.50
2018-10-01T02:06:24.203Z,2.93
2018-10-01T02:08:56.827Z,2.90
2018-10-01T02:11:30.005Z,2.33
2018-10-01T02:14:01.161Z,3.53
2018-10-01T02:16:34.309Z,3.27
2018-10-01T02:19:05.983Z,3.37
2018-10-01T02:21:39.032Z,3.07
2018-10-01T02:24:10.586Z,2.87
2018-10-01T02:26:44.092Z,3.30
2018-10-01T02:29:13.768Z,3.13
2018-10-01T02:31:43.322Z,3.33
2018-10-01T02:34:12.833Z,2.70
2018-10-01T02:36:42.367Z,3.07
2018-10-01T02:39:13.472Z,2.80
2018-10-01T02:41:43.047Z,3.17
2018-10-01T02:44:12.630Z,3.00
2018-10-01T02:46:42.127Z,2.93
2018-10-01T02:49:11.889Z,2.50
2018-10-01T02:51:46.613Z,2.70
2018-10-01T02:54:21.489Z,2.53
2018-10-01T02:56:51.018Z,3.10
2018-10-01T02:59:20.533Z,3.07
2018-10-01T03:01:50.078Z,2.40
2018-10-01T03:04:19.650Z,2.53
2018-10-01T03:06:49.555Z,3.27
2018-10-01T03:09:19.081Z,2.10
2018-10-01T03:11:48.609Z,2.47
2018-10-01T03:14:18.201Z,3.17
2018-10-01T03:16:47.676Z,3.30
2018-10-01T03:19:17.175Z,2.63
2018-10-01T03:21:47.002Z,2.63
2018-10-01T03:24:16.726Z,2.57
2018-10-01T03:26:46.248Z,2.93
2018-10-01T03:29:15.713Z,2.27
2018-10-01T03:31:45.267Z,2.43
2018-10-01T03:34:14.768Z,2.30
2018-10-01T03:36:44.329Z,2.57
2018-10-01T03:39:13.842Z,2.27
2018-10-01T03:41:43.341Z,2.80
2018-10-01T03:44:12.841Z,2.60
2018-10-01T03:46:42.402Z,2.10
2018-10-01T03:49:11.981Z,2.37
2018-10-01T03:51:41.511Z,2.57
2018-10-01T03:54:11.035Z,2.30
2018-10-01T03:56:40.629Z,2.53
2018-10-01T03:59:10.329Z,2.33
2018-10-01T04:01:39.864Z,2.53
2018-10-01T04:04:09.806Z,1.90
2018-10-01T04:06:39.309Z,2.60
2018-10-01T04:09:10.212Z,2.47
2018-10-01T04:11:39.717Z,3.13
2018-10-01T04:14:09.587Z,3.03
2018-10-01T04:16:39.165Z,2.70
2018-10-01T04:19:08.782Z,2.53
2018-10-01T04:21:38.536Z,2.40
2018-10-01T04:24:08.038Z,2.70
2018-10-01T04:26:37.541Z,2.23
2018-10-01T04:29:07.739Z,2.17
2018-10-01T04:31:37.247Z,3.10
2018-10-01T04:34:06.792Z,2.03
2018-10-01T04:36:36.325Z,2.20
2018-10-01T04:39:10.085Z,2.43
2018-10-01T04:41:40.033Z,1.97
2018-10-01T04:44:09.906Z,2.40
2018-10-01T04:46:40.492Z,2.57
2018-10-01T04:49:11.319Z,3.00
2018-10-01T04:51:42.325Z,2.50
2018-10-01T04:54:11.941Z,3.00
2018-10-01T04:56:41.453Z,2.50
2018-10-01T04:59:10.942Z,2.13
2018-10-01T05:01:40.482Z,2.80
2018-10-01T05:04:09.994Z,1.83
2018-10-01T05:06:39.763Z,2.67
2018-10-01T05:09:10.384Z,2.40
2018-10-01T05:11:39.933Z,2.37
2018-10-01T05:14:09.482Z,2.93
2018-10-01T05:16:39.069Z,2.33
2018-10-01T05:19:08.704Z,3.07
2018-10-01T05:21:38.445Z,2.90
2018-10-01T05:24:08.046Z,2.50
2018-10-01T05:26:37.569Z,2.60
2018-10-01T05:29:07.353Z,2.30
2018-10-01T05:31:36.861Z,2.50
2018-10-01T05:34:06.979Z,2.90
2018-10-01T05:36:36.713Z,2.57
2018-10-01T05:39:11.481Z,2.40
2018-10-01T05:41:41.102Z,1.90
2018-10-01T05:44:10.655Z,2.57
2018-10-01T05:46:40.194Z,2.60
2018-10-01T05:49:09.781Z,2.70
2018-10-01T05:51:39.501Z,2.63
2018-10-01T05:54:09.085Z,3.53
2018-10-01T05:56:38.582Z,2.57
2018-10-01T05:59:08.674Z,3.57
2018-10-01T06:01:38.213Z,3.10
2018-10-01T06:04:08.211Z,2.30
2018-10-01T06:06:37.797Z,2.43
2018-10-01T06:09:10.583Z,2.20
2018-10-01T06:11:40.226Z,3.03
2018-10-01T06:14:10.621Z,1.90
2018-10-01T06:16:40.406Z,2.77
2018-10-01T06:19:09.926Z,2.30
2018-10-01T06:21:39.536Z,2.37
2018-10-01T06:24:09.153Z,2.10
2018-10-01T06:26:38.708Z,2.90
2018-10-01T06:29:08.243Z,2.37
2018-10-01T06:31:38.140Z,2.17
2018-10-01T06:34:07.677Z,2.17
2018-10-01T06:36:37.254Z,2.23
2018-10-01T06:39:09.878Z,2.03
2018-10-01T06:41:39.820Z,2.10
2018-10-01T06:44:10.027Z,2.70
2018-10-01T06:46:39.568Z,2.47
2018-10-01T06:49:09.082Z,2.73
2018-10-01T06:51:38.682Z,2.90
2018-10-01T06:54:08.222Z,2.73
2018-10-01T06:56:37.737Z,2.90
2018-10-01T06:59:07.247Z,2.20
2018-10-01T07:01:36.898Z,2.53
2018-10-01T07:04:06.493Z,2.03
2018-10-01T07:06:36.026Z,3.00
2018-10-01T07:09:09.621Z,1.83
2018-10-01T07:11:41.361Z,2.33
2018-10-01T07:14:11.097Z,2.23
2018-10-01T07:16:40.696Z,1.90
2018-10-01T07:19:10.874Z,2.10
2018-10-01T07:21:40.607Z,1.90
2018-10-01T07:24:10.232Z,1.93
2018-10-01T07:26:39.885Z,2.07
2018-10-01T07:29:09.553Z,1.47
2018-10-01T07:31:39.181Z,2.20
2018-10-01T07:34:08.684Z,1.20
2018-10-01T07:36:38.323Z,1.67
2018-10-01T07:39:08.940Z,1.87
2018-10-01T07:41:38.509Z,1.57
2018-10-01T07:44:08.467Z,1.60
2018-10-01T07:46:38.037Z,1.67
2018-10-01T07:49:07.971Z,1.10
2018-10-01T07:51:37.697Z,1.70
2018-10-01T07:54:07.920Z,2.27
2018-10-01T07:56:37.630Z,2.00
2018-10-01T07:59:07.354Z,1.60
2018-10-01T08:01:36.892Z,1.50
2018-10-01T08:04:06.843Z,1.93
2018-10-01T08:06:36.378Z,1.80
2018-10-01T08:09:09.581Z,1.77
2018-10-01T08:11:39.613Z,1.93
2018-10-01T08:14:09.519Z,1.53
2018-10-01T08:16:39.198Z,1.80
2018-10-01T08:19:08.774Z,1.20
2018-10-01T08:21:38.377Z,1.50
2018-10-01T08:24:08.259Z,1.50
2018-10-01T08:26:37.772Z,1.40
2018-10-01T08:29:07.853Z,1.17
2018-10-01T08:31:37.566Z,1.10
2018-10-01T08:34:07.425Z,1.67
2018-10-01T08:36:36.988Z,1.80
2018-10-01T08:39:12.657Z,1.77
2018-10-01T08:41:42.557Z,1.63
2018-10-01T08:44:13.151Z,1.33
2018-10-01T08:46:42.846Z,1.40
2018-10-01T08:49:22.207Z,1.33
2018-10-01T08:52:30.357Z,1.60
2018-10-01T08:54:59.866Z,1.03
2018-10-01T08:57:29.374Z,1.07
2018-10-01T08:59:58.898Z,1.10
2018-10-01T09:02:28.614Z,1.20
2018-10-01T09:04:58.417Z,1.30
2018-10-01T09:07:28.151Z,1.07
2018-10-01T09:09:59.188Z,1.43
2018-10-01T09:12:28.774Z,1.33
2018-10-01T09:14:58.341Z,1.97
2018-10-01T09:17:28.127Z,1.43
2018-10-01T09:19:57.794Z,1.97
2018-10-01T09:22:27.521Z,1.10
2018-10-01T09:24:57.027Z,1.10
2018-10-01T09:27:26.549Z,0.70
2018-10-01T09:29:56.066Z,1.13
2018-10-01T09:32:25.729Z,1.20
2018-10-01T09:34:55.441Z,1.07
2018-10-01T09:37:25.006Z,1.00
2018-10-01T09:39:54.555Z,1.90
2018-10-01T09:42:24.236Z,1.00
2018-10-01T09:44:53.850Z,0.70
2018-10-01T09:47:23.366Z,1.27
2018-10-01T09:49:52.875Z,1.30
2018-10-01T09:52:22.875Z,1.20
2018-10-01T09:54:52.574Z,1.13
2018-10-01T09:57:22.141Z,1.70
2018-10-01T09:59:51.652Z,1.10
2018-10-01T10:02:21.166Z,1.07
2018-10-01T10:04:51.065Z,1.23
2018-10-01T10:07:21.044Z,1.10
2018-10-01T10:09:50.580Z,1.13
2018-10-01T10:12:20.313Z,1.20
2018-10-01T10:14:49.804Z,0.53
2018-10-01T10:17:19.362Z,0.93
2018-10-01T10:19:49.454Z,1.10
2018-10-01T10:22:19.391Z,0.97
2018-10-01T10:24:49.221Z,0.77
2018-10-01T10:27:18.792Z,1.10
2018-10-01T10:29:48.326Z,1.20
2018-10-01T10:32:17.852Z,0.97
2018-10-01T10:34:47.398Z,0.80
2018-10-01T10:37:16.941Z,0.83
2018-10-01T10:39:46.426Z,1.10
2018-10-01T10:42:15.996Z,1.07
2018-10-01T10:44:45.503Z,1.13
2018-10-01T10:47:15.014Z,1.43
2018-10-01T10:49:44.557Z,1.00
2018-10-01T10:52:14.102Z,1.00
2018-10-01T10:54:43.648Z,0.57
2018-10-01T10:57:13.594Z,0.97
2018-10-01T10:59:43.163Z,0.97
2018-10-01T11:02:12.758Z,0.80
2018-10-01T11:04:42.906Z,1.10
2018-10-01T11:07:12.474Z,1.37
2018-10-01T11:09:42.142Z,1.37
2018-10-01T11:12:11.710Z,1.10
2018-10-01T11:14:41.657Z,1.40
2018-10-01T11:17:11.336Z,0.70
2018-10-01T11:19:41.306Z,1.23
2018-10-01T11:22:10.969Z,1.10
2018-10-01T11:24:40.459Z,0.70
2018-10-01T11:27:10.054Z,0.80
2018-10-01T11:29:40.068Z,0.30
2018-10-01T11:32:09.581Z,0.40
2018-10-01T11:34:39.474Z,0.30
2018-10-01T11:37:09.141Z,0.30
2018-10-01T11:39:38.707Z,0.20
2018-10-01T11:42:09.064Z,0.33
2018-10-01T11:44:38.834Z,0.30
2018-10-01T11:47:08.733Z,0.60
2018-10-01T11:49:38.190Z,0.43
2018-10-01T11:52:08.308Z,0.80
2018-10-01T11:54:37.843Z,0.50
2018-10-01T11:57:07.618Z,0.63
2018-10-01T11:59:37.280Z,0.80
2018-10-01T12:02:06.815Z,0.80
2018-10-01T12:04:36.284Z,0.77
2018-10-01T12:07:05.896Z,0.77
2018-10-01T12:09:35.549Z,0.63
2018-10-01T12:12:05.113Z,0.93
2018-10-01T12:14:34.628Z,0.70
2018-10-01T12:17:04.299Z,0.70
2018-10-01T12:19:33.853Z,0.57
2018-10-01T12:22:03.479Z,0.80
2018-10-01T12:24:33.037Z,0.93
2018-10-01T12:27:02.700Z,0.90
2018-10-01T12:29:32.458Z,0.80
2018-10-01T12:32:02.037Z,0.83
2018-10-01T12:34:31.563Z,1.13
2018-10-01T12:37:01.091Z,1.00
2018-10-01T12:39:30.641Z,1.17
2018-10-01T12:42:00.432Z,0.90
2018-10-01T12:44:31.329Z,1.00
2018-10-01T12:47:00.902Z,1.13
2018-10-01T12:49:30.411Z,1.20
2018-10-01T12:51:59.971Z,1.03
2018-10-01T12:54:29.496Z,1.10
2018-10-01T12:56:59.342Z,1.27
2018-10-01T12:59:28.856Z,0.83
2018-10-01T13:01:58.553Z,1.10
2018-10-01T13:04:28.237Z,1.33
2018-10-01T13:06:57.757Z,1.40
2018-10-01T13:09:27.284Z,1.17
2018-10-01T13:11:57.134Z,1.30
2018-10-01T13:14:26.726Z,2.23
2018-10-01T13:16:56.241Z,1.20
2018-10-01T13:19:25.798Z,1.33
2018-10-01T13:21:55.309Z,1.53
2018-10-01T13:24:24.944Z,1.40
2018-10-01T13:26:54.763Z,1.13
2018-10-01T13:29:24.487Z,1.70
2018-10-01T13:31:54.123Z,1.60
2018-10-01T13:34:23.861Z,1.20
2018-10-01T13:36:53.392Z,1.00
2018-10-01T13:39:23.309Z,1.70
2018-10-01T13:41:52.826Z,0.80
2018-10-01T13:44:22.544Z,0.83
2018-10-01T13:46:52.622Z,1.70
2018-10-01T13:49:22.183Z,2.00
2018-10-01T13:51:51.697Z,1.80
2018-10-01T13:54:21.292Z,1.50
2018-10-01T13:56:51.042Z,1.93
2018-10-01T13:59:20.577Z,1.40
2018-10-01T14:01:50.182Z,1.73
2018-10-01T14:04:19.940Z,1.23
2018-10-01T14:06:49.519Z,2.03
2018-10-01T14:09:19.210Z,2.17
2018-10-01T14:11:48.952Z,1.60
2018-10-01T14:14:18.481Z,1.57
2018-10-01T14:16:48.222Z,2.10
2018-10-01T14:19:18.054Z,2.07
2018-10-01T14:21:47.697Z,1.80
2018-10-01T14:24:17.284Z,1.80
2018-10-01T14:26:46.986Z,1.53
2018-10-01T14:29:16.497Z,2.80
2018-10-01T14:31:46.015Z,2.23
2018-10-01T14:34:15.506Z,1.33
2018-10-01T14:36:45.203Z,1.97
2018-10-01T14:39:15.337Z,1.67
2018-10-01T14:41:44.961Z,1.70
2018-10-01T14:44:14.546Z,2.20
2018-10-01T14:46:44.071Z,3.27
2018-10-01T14:49:13.571Z,1.40
2018-10-01T14:51:43.105Z,1.73
2018-10-01T14:54:12.851Z,1.53
2018-10-01T14:56:42.376Z,1.83
2018-10-01T14:59:11.977Z,1.50
2018-10-01T15:01:41.778Z,1.40
2018-10-01T15:04:11.310Z,1.17
2018-10-01T15:06:40.892Z,0.83
2018-10-01T15:09:11.885Z,1.10
2018-10-01T15:11:41.497Z,1.40
2018-10-01T15:14:11.665Z,1.40
2018-10-01T15:16:41.465Z,1.03
2018-10-01T15:19:11.276Z,1.37
2018-10-01T15:21:40.767Z,0.90
2018-10-01T15:24:10.266Z,0.87
2018-10-01T15:26:39.925Z,0.83
2018-10-01T15:29:09.438Z,0.87
2018-10-01T15:31:39.009Z,1.53
2018-10-01T15:34:08.537Z,1.00
2018-10-01T15:36:38.112Z,0.60
2018-10-01T15:39:10.025Z,0.83
2018-10-01T15:41:39.549Z,1.03
2018-10-01T15:44:09.136Z,1.10
2018-10-01T15:46:38.997Z,0.80
2018-10-01T15:49:08.515Z,0.77
2018-10-01T15:51:38.197Z,1.33
2018-10-01T15:54:07.721Z,0.90
2018-10-01T15:56:38.166Z,1.03
2018-10-01T15:59:07.956Z,2.00
2018-10-01T16:01:37.955Z,1.10
2018-10-01T16:04:08.178Z,1.33
2018-10-01T16:06:37.721Z,0.97
2018-10-01T16:09:10.340Z,0.90
2018-10-01T16:11:40.250Z,0.70
2018-10-01T16:14:11.413Z,1.53
2018-10-01T16:16:42.011Z,1.07
2018-10-01T16:19:11.574Z,1.50
2018-10-01T16:21:41.375Z,1.43
2018-10-01T16:24:10.929Z,1.60
2018-10-01T16:26:41.487Z,2.30
2018-10-01T16:29:11.563Z,1.63
2018-10-01T16:31:41.167Z,2.07
2018-10-01T16:34:10.779Z,2.00
2018-10-01T16:36:40.306Z,2.23
2018-10-01T16:39:12.361Z,1.30
2018-10-01T16:41:42.379Z,1.70
2018-10-01T16:44:11.956Z,1.33
2018-10-01T16:46:42.249Z,1.43
2018-10-01T16:49:11.831Z,1.53
2018-10-01T16:51:41.571Z,1.23
2018-10-01T16:54:11.270Z,1.97
2018-10-01T16:56:40.747Z,1.47
2018-10-01T16:59:10.245Z,1.03
2018-10-01T17:01:39.783Z,1.20
2018-10-01T17:04:09.533Z,1.20
2018-10-01T17:06:39.027Z,1.57
2018-10-01T17:09:09.801Z,1.40
2018-10-01T17:11:39.298Z,1.43
2018-10-01T17:14:08.946Z,0.70
2018-10-01T17:16:38.457Z,0.90
2018-10-01T17:19:08.285Z,1.00
2018-10-01T17:21:38.039Z,1.13
2018-10-01T17:24:07.882Z,0.90
2018-10-01T17:26:37.369Z,0.73
2018-10-01T17:29:07.233Z,1.30
2018-10-01T17:31:36.722Z,0.97
2018-10-01T17:34:06.237Z,1.00
2018-10-01T17:36:36.069Z,1.33
2018-10-01T17:39:09.738Z,1.03
2018-10-01T17:41:39.997Z,1.40
2018-10-01T17:44:09.741Z,1.43
2018-10-01T17:46:39.473Z,2.40
2018-10-01T17:49:09.049Z,1.33
2018-10-01T17:51:38.664Z,1.70
2018-10-01T17:54:08.617Z,1.50
2018-10-01T17:56:38.325Z,2.03
2018-10-01T17:59:07.794Z,1.83
2018-10-01T18:01:37.301Z,1.40
2018-10-01T18:04:07.450Z,1.47
2018-10-01T18:06:37.133Z,1.23
2018-10-01T18:09:10.686Z,1.70
2018-10-01T18:11:40.303Z,1.30
2018-10-01T18:14:10.317Z,1.03
2018-10-01T18:16:40.582Z,1.00
2018-10-01T18:19:10.065Z,1.37
2018-10-01T18:21:39.622Z,1.30
2018-10-01T18:24:11.654Z,1.50
2018-10-01T18:26:41.329Z,1.37
2018-10-01T18:29:11.958Z,1.33
2018-10-01T18:31:42.761Z,1.43
2018-10-01T18:34:13.496Z,1.20
2018-10-01T18:36:44.365Z,1.60
2018-10-01T18:39:19.807Z,1.60
2018-10-01T18:41:50.011Z,1.43
2018-10-01T18:44:22.938Z,1.53
2018-10-01T18:46:53.842Z,1.97
2018-10-01T18:49:26.387Z,1.70
2018-10-01T18:51:55.882Z,1.80
2018-10-01T18:54:28.171Z,2.17
2018-10-01T18:56:57.677Z,1.60
2018-10-01T18:59:27.244Z,2.17
2018-10-01T19:01:57.181Z,1.50
2018-10-01T19:04:29.257Z,1.73
2018-10-01T19:06:59.805Z,1.40
2018-10-01T19:09:30.198Z,1.60
2018-10-01T19:12:01.024Z,1.27
2018-10-01T19:14:32.349Z,1.47
2018-10-01T19:17:02.398Z,1.93
2018-10-01T19:19:32.304Z,1.50
2018-10-01T19:22:03.882Z,1.80
2018-10-01T19:24:34.202Z,1.57
2018-10-01T19:27:04.926Z,1.33
2018-10-01T19:29:34.514Z,1.40
2018-10-01T19:32:07.343Z,1.20
2018-10-01T19:34:37.081Z,1.53
2018-10-01T19:37:10.455Z,1.80
2018-10-01T19:39:43.382Z,1.53
2018-10-01T19:42:15.964Z,1.90
2018-10-01T19:44:45.873Z,1.33
2018-10-01T19:47:18.804Z,1.13
2018-10-01T19:49:50.799Z,1.97
2018-10-01T19:52:24.281Z,1.57
2018-10-01T19:54:57.048Z,1.40
2018-10-01T19:57:30.317Z,1.70
2018-10-01T20:00:03.362Z,1.63
2018-10-01T20:02:36.142Z,1.27
2018-10-01T20:05:09.725Z,1.90
2018-10-01T20:07:40.222Z,1.70
2018-10-01T20:10:12.944Z,2.27
2018-10-01T20:12:45.706Z,2.63
2018-10-01T20:15:15.324Z,2.97
2018-10-01T20:17:48.737Z,4.03
2018-10-01T20:20:20.749Z,3.10
2018-10-01T20:22:51.849Z,3.00
2018-10-01T20:25:24.237Z,2.10
2018-10-01T20:27:56.889Z,2.07
2018-10-01T20:30:29.090Z,2.27
2018-10-01T20:33:01.579Z,2.20
2018-10-01T20:35:35.170Z,2.63
2018-10-01T20:38:05.108Z,2.63
2018-10-01T20:40:40.324Z,2.70
2018-10-01T20:43:13.411Z,2.37
2018-10-01T20:45:46.512Z,2.23
2018-10-01T20:48:19.376Z,2.23
2018-10-01T20:50:48.966Z,2.33
2018-10-01T20:53:21.859Z,2.63
2018-10-01T20:55:55.075Z,2.63
2018-10-01T20:58:26.531Z,2.80
2018-10-01T21:00:59.829Z,2.63
2018-10-01T21:03:32.958Z,3.10
2018-10-01T21:06:04.136Z,2.97
2018-10-01T21:08:38.219Z,3.47
2018-10-01T21:11:11.334Z,2.80
2018-10-01T21:13:42.305Z,2.37
2018-10-01T21:16:12.113Z,3.40
2018-10-01T21:18:45.177Z,3.03
2018-10-01T21:21:18.493Z,2.77
2018-10-01T21:23:50.495Z,2.77
2018-10-01T21:26:20.086Z,3.63
2018-10-01T21:28:52.384Z,3.47
2018-10-01T21:31:25.147Z,2.80
2018-10-01T21:33:57.569Z,2.60
2018-10-01T21:36:30.879Z,2.90
2018-10-01T21:39:01.744Z,2.17
2018-10-01T21:41:31.197Z,3.30
2018-10-01T21:44:00.758Z,2.33
2018-10-01T21:46:32.778Z,2.83
2018-10-01T21:49:02.295Z,2.43
2018-10-01T21:51:34.154Z,2.90
2018-10-01T21:54:06.363Z,3.03
2018-10-01T21:56:36.003Z,3.00
2018-10-01T21:59:07.262Z,2.87
2018-10-01T22:01:38.371Z,3.23
2018-10-01T22:04:13.658Z,2.10
2018-10-01T22:06:46.050Z,2.13
2018-10-01T22:09:18.764Z,2.63
2018-10-01T22:11:48.755Z,2.47
2018-10-01T22:14:19.929Z,2.93
2018-10-01T22:16:51.700Z,2.40
2018-10-01T22:19:21.321Z,2.10
2018-10-01T22:21:50.857Z,2.30
2018-10-01T22:24:20.373Z,2.57
2018-10-01T22:26:50.479Z,2.97
2018-10-01T22:29:22.402Z,2.80
2018-10-01T22:31:52.169Z,2.27
2018-10-01T22:34:21.967Z,3.03
2018-10-01T22:36:51.512Z,3.87
2018-10-01T22:39:21.137Z,3.57
2018-10-01T22:41:50.592Z,3.10
2018-10-01T22:44:20.136Z,2.93
2018-10-01T22:46:49.637Z,3.27
2018-10-01T22:49:19.138Z,2.43
2018-10-01T22:51:48.637Z,3.07
2018-10-01T22:54:18.097Z,2.67
2018-10-01T22:56:47.608Z,3.00
2018-10-01T22:59:18.642Z,2.87
2018-10-01T23:01:48.761Z,2.93
2018-10-01T23:04:18.232Z,2.53
2018-10-01T23:06:47.718Z,2.60
2018-10-01T23:09:17.233Z,3.03
2018-10-01T23:11:46.855Z,2.60
2018-10-01T23:14:16.354Z,2.80
2018-10-01T23:16:45.804Z,2.57
2018-10-01T23:19:15.328Z,2.83
2018-10-01T23:21:44.823Z,3.53
2018-10-01T23:24:14.345Z,3.10
2018-10-01T23:26:43.897Z,3.03
2018-10-01T23:29:13.436Z,3.17
2018-10-01T23:31:45.077Z,3.00
2018-10-01T23:34:14.752Z,2.40
2018-10-01T23:36:45.896Z,2.67
2018-10-01T23:39:15.501Z,2.93
2018-10-01T23:41:45.150Z,3.30
2018-10-01T23:44:14.721Z,2.90
2018-10-01T23:46:44.553Z,3.10
2018-10-01T23:49:14.497Z,3.13
2018-10-01T23:51:43.984Z,2.97
2018-10-01T23:54:13.630Z,2.70
2018-10-01T23:56:43.137Z,3.10
2018-10-01T23:59:12.621Z,3.10
